Time;durP1;ratioP1;P1;durP2;ratioP2;P2;SDS_P1;SDS_P2;PMS_P1;PMS_P2;Temp;Humidity;BMP_temperature;BMP_pressure;BME280_temperature;BME280_humidity;BME280_pressure;Samples;Min_cycle;Max_cycle;Signal;HPM_P1;HPM_P2
2022/04/08 00:01:26;;;;;;;7.55;1.70;;;9.60;99.90;;;;;;5019176;28;20686;-69
2022/04/08 00:03:56;;;;;;;6.57;1.15;;;9.50;99.90;;;;;;5021003;28;20052;-70
2022/04/08 00:06:24;;;;;;;3.50;0.90;;;9.50;99.90;;;;;;5023606;28;20029;-70
2022/04/08 00:08:50;;;;;;;4.25;1.00;;;9.50;99.90;;;;;;5025490;28;20493;-71
2022/04/08 00:11:19;;;;;;;8.98;1.30;;;9.50;99.90;;;;;;5022384;28;20155;-70
2022/04/08 00:13:45;;;;;;;7.07;0.90;;;9.50;99.90;;;;;;5018589;28;20115;-70
2022/04/08 00:16:11;;;;;;;5.05;1.15;;;9.40;99.90;;;;;;5019382;28;20037;-70
2022/04/08 00:18:40;;;;;;;6.22;1.52;;;9.40;99.90;;;;;;5023383;28;20048;-70
2022/04/08 00:21:06;;;;;;;4.68;0.90;;;9.40;99.90;;;;;;5023403;28;20017;-71
2022/04/08 00:23:32;;;;;;;2.85;0.93;;;9.40;99.90;;;;;;5021959;28;20524;-70
2022/04/08 00:25:58;;;;;;;7.18;1.17;;;9.40;99.90;;;;;;5020383;28;20164;-70
2022/04/08 00:28:26;;;;;;;4.43;0.80;;;9.40;99.90;;;;;;5023227;28;21416;-70
2022/04/08 00:30:52;;;;;;;8.57;0.85;;;9.30;99.90;;;;;;5019623;28;20161;-70
2022/04/08 00:33:17;;;;;;;4.53;0.98;;;9.30;99.90;;;;;;5028046;28;20159;-70
2022/04/08 00:35:46;;;;;;;2.97;0.70;;;9.30;99.90;;;;;;5028842;28;20474;-70
2022/04/08 00:38:11;;;;;;;7.00;1.25;;;9.30;99.90;;;;;;5027352;28;20104;-70
2022/04/08 00:40:37;;;;;;;3.80;0.88;;;9.30;99.90;;;;;;5032785;28;20121;-70
2022/04/08 00:43:17;;;;;;;5.70;1.00;;;9.20;99.90;;;;;;5033134;28;20017;-70
2022/04/08 00:45:46;;;;;;;4.55;1.13;;;9.20;99.90;;;;;;5028513;28;20058;-70
2022/04/08 00:48:12;;;;;;;7.22;1.00;;;9.20;99.90;;;;;;5028535;28;20083;-70
2022/04/08 00:50:39;;;;;;;4.20;1.27;;;9.20;99.90;;;;;;5030640;28;20104;-70
2022/04/08 00:53:06;;;;;;;4.07;1.20;;;9.20;99.90;;;;;;5025193;28;20021;-70
2022/04/08 00:55:38;;;;;;;5.45;1.02;;;9.20;99.90;;;;;;5027493;28;20371;-71
2022/04/08 00:58:05;;;;;;;7.85;1.60;;;9.10;99.90;;;;;;5028534;28;20113;-70
2022/04/08 01:00:36;;;;;;;6.32;1.20;;;9.10;99.90;;;;;;5030927;28;20464;-71
2022/04/08 01:03:03;;;;;;;5.80;1.30;;;9.20;99.90;;;;;;5030859;28;20047;-70
2022/04/08 01:05:29;;;;;;;7.28;1.13;;;9.20;99.90;;;;;;5032184;28;20067;-71
2022/04/08 01:07:55;;;;;;;7.07;1.50;;;9.10;99.90;;;;;;5032141;28;20128;-70
2022/04/08 01:10:24;;;;;;;5.30;0.95;;;9.10;99.90;;;;;;5069875;23;20124;-69
2022/04/08 01:12:53;;;;;;;7.47;1.17;;;9.10;99.90;;;;;;5047583;28;20025;-68
2022/04/08 01:15:20;;;;;;;8.93;1.90;;;9.10;99.90;;;;;;5047106;28;20660;-68
2022/04/08 01:17:50;;;;;;;5.10;1.77;;;9.10;99.90;;;;;;5050694;28;20090;-68
2022/04/08 01:20:16;;;;;;;3.92;1.10;;;9.10;99.90;;;;;;5047807;28;20040;-68
2022/04/08 01:22:42;;;;;;;6.97;1.35;;;9.10;99.90;;;;;;5053674;28;20032;-68
2022/04/08 01:25:10;;;;;;;4.35;1.00;;;9.10;99.90;;;;;;5044196;28;20519;-68
2022/04/08 01:27:36;;;;;;;4.43;1.05;;;9.10;99.90;;;;;;5052931;28;20021;-68
2022/04/08 01:30:05;;;;;;;4.55;0.93;;;9.10;99.90;;;;;;5044285;28;20538;-68
2022/04/08 01:32:31;;;;;;;3.17;0.88;;;9.10;99.90;;;;;;5049968;28;20068;-66
2022/04/08 01:34:57;;;;;;;3.28;0.82;;;9.10;99.90;;;;;;5052168;28;20115;-68
2022/04/08 01:37:22;;;;;;;5.90;1.63;;;9.00;99.90;;;;;;5054722;28;20025;-67
2022/04/08 01:39:48;;;;;;;9.00;1.40;;;9.10;99.90;;;;;;5051174;28;20025;-68
2022/04/08 01:42:14;;;;;;;5.78;1.25;;;9.00;99.90;;;;;;5047151;28;20037;-68
2022/04/08 01:44:40;;;;;;;6.70;0.82;;;9.00;99.90;;;;;;5046998;28;20406;-68
2022/04/08 01:47:06;;;;;;;6.22;1.70;;;9.10;99.90;;;;;;5049550;28;20029;-68
2022/04/08 01:49:32;;;;;;;5.60;1.27;;;9.10;99.90;;;;;;5050146;28;20090;-67
2022/04/08 01:51:58;;;;;;;4.72;1.02;;;9.10;99.90;;;;;;5048120;28;20025;-68
2022/04/08 01:54:24;;;;;;;5.32;1.13;;;9.10;99.90;;;;;;5047829;28;20032;-68
2022/04/08 01:56:50;;;;;;;6.05;1.20;;;9.10;99.90;;;;;;5048601;28;20043;-68
2022/04/08 01:59:15;;;;;;;4.63;1.00;;;9.10;99.90;;;;;;5047382;28;20070;-68
2022/04/08 02:01:42;;;;;;;6.30;1.20;;;9.10;99.90;;;;;;5048036;28;20032;-67
2022/04/08 02:04:07;;;;;;;6.30;1.13;;;9.10;99.90;;;;;;5048042;28;20428;-67
2022/04/08 02:06:36;;;;;;;5.20;0.80;;;9.00;99.90;;;;;;5047329;28;20021;-68
2022/04/08 02:09:03;;;;;;;4.78;1.08;;;9.10;99.90;;;;;;5043576;28;20028;-68
2022/04/08 02:11:28;;;;;;;7.55;1.30;;;9.10;99.90;;;;;;5050182;28;20056;-68
2022/04/08 02:13:54;;;;;;;7.97;1.30;;;9.00;99.90;;;;;;5050585;28;20024;-68
2022/04/08 02:16:19;;;;;;;6.68;1.17;;;9.00;99.90;;;;;;5045249;28;20025;-68
2022/04/08 02:18:45;;;;;;;5.78;1.10;;;9.10;99.90;;;;;;5048496;28;20037;-69
2022/04/08 02:21:11;;;;;;;6.88;1.20;;;9.00;99.90;;;;;;5043611;28;20025;-69
2022/04/08 02:23:37;;;;;;;3.10;0.70;;;9.00;99.90;;;;;;5045041;28;20078;-68
2022/04/08 02:26:05;;;;;;;7.38;0.95;;;9.00;99.90;;;;;;5039294;28;20045;-69
2022/04/08 02:28:32;;;;;;;2.25;0.80;;;9.00;99.90;;;;;;5044034;28;20033;-69
2022/04/08 02:30:58;;;;;;;3.08;0.70;;;9.00;99.90;;;;;;5045335;28;20379;-69
2022/04/08 02:33:24;;;;;;;3.65;0.90;;;8.90;99.90;;;;;;5043047;28;20128;-68
2022/04/08 02:35:50;;;;;;;3.55;0.60;;;8.90;99.90;;;;;;5044847;28;20546;-69
2022/04/08 02:38:16;;;;;;;2.63;0.77;;;9.00;99.90;;;;;;5043344;28;20053;-69
2022/04/08 02:40:41;;;;;;;2.05;0.50;;;8.90;99.90;;;;;;5044374;28;20036;-69
2022/04/08 02:43:07;;;;;;;4.38;0.60;;;8.90;99.90;;;;;;5050299;28;20461;-69
2022/04/08 02:45:33;;;;;;;2.63;0.57;;;8.90;99.90;;;;;;5046397;28;20033;-68
2022/04/08 02:47:58;;;;;;;6.97;0.88;;;8.90;99.90;;;;;;5045609;28;20220;-69
2022/04/08 02:50:24;;;;;;;3.85;0.90;;;8.90;99.90;;;;;;5047949;28;20035;-69
2022/04/08 02:52:49;;;;;;;4.32;0.80;;;8.90;99.90;;;;;;5043126;28;20055;-68
2022/04/08 02:55:15;;;;;;;7.63;0.70;;;8.80;99.90;;;;;;5045839;28;20029;-69
2022/04/08 02:57:45;;;;;;;4.68;0.50;;;8.80;99.90;;;;;;5046018;28;20036;-68
2022/04/08 03:00:20;;;;;;;3.05;0.50;;;8.80;99.90;;;;;;5046269;28;20066;-69
2022/04/08 03:02:47;;;;;;;2.25;0.88;;;8.80;99.90;;;;;;5046373;28;20029;-68
2022/04/08 03:05:14;;;;;;;4.22;0.90;;;8.80;99.90;;;;;;5045366;28;20035;-68
2022/04/08 03:07:40;;;;;;;2.28;0.68;;;8.70;99.90;;;;;;5044429;28;20037;-69
2022/04/08 03:10:08;;;;;;;6.28;1.25;;;8.70;99.90;;;;;;5043876;28;20083;-67
2022/04/08 03:12:34;;;;;;;3.42;1.10;;;8.70;99.90;;;;;;5046125;28;20414;-68
2022/04/08 03:15:00;;;;;;;6.38;0.93;;;8.70;99.90;;;;;;5046252;28;20025;-68
2022/04/08 03:17:26;;;;;;;3.38;0.60;;;8.70;99.90;;;;;;5046823;28;20086;-68
2022/04/08 03:19:52;;;;;;;7.07;0.77;;;8.60;99.90;;;;;;5047058;28;20544;-68
2022/04/08 03:22:20;;;;;;;4.55;0.93;;;8.60;99.90;;;;;;5045595;28;20025;-68
2022/04/08 03:24:50;;;;;;;6.22;0.70;;;8.70;99.90;;;;;;5044709;28;20044;-68
2022/04/08 03:27:18;;;;;;;3.97;0.93;;;8.70;99.90;;;;;;5042799;28;20067;-68
2022/04/08 03:29:44;;;;;;;4.60;0.70;;;8.70;99.90;;;;;;5045607;28;20067;-68
2022/04/08 03:32:10;;;;;;;2.72;0.65;;;8.70;99.90;;;;;;5044733;28;20036;-69
2022/04/08 03:34:37;;;;;;;3.70;1.00;;;8.70;99.90;;;;;;5045858;28;20044;-69
2022/04/08 03:37:03;;;;;;;5.05;0.98;;;8.70;99.90;;;;;;5044440;28;20072;-69
2022/04/08 03:39:29;;;;;;;3.40;0.90;;;8.70;99.90;;;;;;5046668;28;20029;-68
2022/04/08 03:41:54;;;;;;;6.00;1.10;;;8.60;99.90;;;;;;5044227;28;20021;-68
2022/04/08 03:44:20;;;;;;;5.18;1.20;;;8.70;99.90;;;;;;5047905;28;20067;-68
2022/04/08 03:46:46;;;;;;;2.72;0.60;;;8.70;99.90;;;;;;5046262;28;20112;-69
2022/04/08 03:49:16;;;;;;;4.53;1.15;;;8.60;99.90;;;;;;5043973;28;20025;-68
2022/04/08 03:51:46;;;;;;;10.45;1.10;;;8.60;99.90;;;;;;5044237;28;20017;-68
2022/04/08 03:54:13;;;;;;;4.03;0.88;;;8.60;99.90;;;;;;5046947;28;20045;-69
2022/04/08 03:56:42;;;;;;;2.88;0.70;;;8.60;99.90;;;;;;5045861;28;20125;-67
2022/04/08 03:59:08;;;;;;;2.55;0.82;;;8.50;99.90;;;;;;5046828;28;20169;-67
2022/04/08 04:01:34;;;;;;;3.20;0.75;;;8.50;99.90;;;;;;5045257;28;20021;-68
2022/04/08 04:04:00;;;;;;;3.65;0.82;;;8.50;99.90;;;;;;5039580;28;20363;-69
2022/04/08 04:06:26;;;;;;;7.07;0.98;;;8.50;99.90;;;;;;5046248;28;20036;-68
2022/04/08 04:08:51;;;;;;;5.82;1.10;;;8.50;99.90;;;;;;5047065;28;20033;-69
2022/04/08 04:11:17;;;;;;;3.95;1.67;;;8.50;99.90;;;;;;5044935;28;20390;-69
2022/04/08 04:13:43;;;;;;;4.32;0.95;;;8.50;99.90;;;;;;5045403;28;20481;-68
2022/04/08 04:16:10;;;;;;;6.20;1.15;;;8.50;99.90;;;;;;5047541;28;20036;-68
2022/04/08 04:18:36;;;;;;;6.05;1.05;;;8.50;99.90;;;;;;5051018;28;20032;-69
2022/04/08 04:21:02;;;;;;;3.13;0.75;;;8.50;99.90;;;;;;5047815;28;20374;-68
2022/04/08 04:23:27;;;;;;;6.55;0.73;;;8.40;99.90;;;;;;5045175;28;20044;-68
2022/04/08 04:25:53;;;;;;;4.95;0.90;;;8.50;99.90;;;;;;5046790;28;20025;-68
2022/04/08 04:28:19;;;;;;;4.80;0.70;;;8.50;99.90;;;;;;5044503;28;20029;-68
2022/04/08 04:30:45;;;;;;;4.32;0.82;;;8.50;99.90;;;;;;5038945;28;20405;-69
2022/04/08 04:33:11;;;;;;;8.77;1.55;;;8.50;99.90;;;;;;5047829;28;20401;-69
2022/04/08 04:35:39;;;;;;;4.90;0.88;;;8.50;99.90;;;;;;5040767;28;20029;-69
2022/04/08 04:38:05;;;;;;;7.90;0.98;;;8.50;99.90;;;;;;5037916;28;20108;-68
2022/04/08 04:40:31;;;;;;;3.83;1.00;;;8.50;99.90;;;;;;5037964;28;20057;-68
2022/04/08 04:42:57;;;;;;;4.60;1.00;;;8.50;99.90;;;;;;5041318;28;20029;-69
2022/04/08 04:45:23;;;;;;;1.98;1.00;;;8.50;99.90;;;;;;5045524;28;20035;-69
2022/04/08 04:47:49;;;;;;;3.35;1.40;;;8.40;99.90;;;;;;5045134;28;20033;-69
2022/04/08 04:50:15;;;;;;;4.13;0.90;;;8.40;99.90;;;;;;5042224;28;20446;-69
2022/04/08 04:52:40;;;;;;;7.43;1.02;;;8.40;99.90;;;;;;5042459;28;20033;-69
2022/04/08 04:55:12;;;;;;;6.10;1.15;;;8.50;99.90;;;;;;5045147;28;20024;-69
2022/04/08 04:57:40;;;;;;;6.85;1.00;;;8.40;99.90;;;;;;5044556;28;20035;-69
2022/04/08 05:00:09;;;;;;;11.55;1.48;;;8.40;99.90;;;;;;5042094;28;20021;-68
2022/04/08 05:02:35;;;;;;;7.07;1.20;;;8.40;99.90;;;;;;5041896;28;20439;-68
2022/04/08 05:05:08;;;;;;;7.85;1.17;;;8.40;99.90;;;;;;5047429;28;20016;-69
2022/04/08 05:07:33;;;;;;;3.00;0.93;;;8.40;99.90;;;;;;5041211;28;20036;-69
2022/04/08 05:09:59;;;;;;;2.53;1.13;;;8.30;99.90;;;;;;5040727;28;20029;-68
2022/04/08 05:12:25;;;;;;;5.35;0.88;;;8.30;99.90;;;;;;5041006;28;20397;-69
2022/04/08 05:14:53;;;;;;;4.32;1.00;;;8.30;99.90;;;;;;5046563;28;20110;-69
2022/04/08 05:17:19;;;;;;;4.03;1.02;;;8.30;99.90;;;;;;5048569;28;20033;-69
2022/04/08 05:19:48;;;;;;;4.65;1.13;;;8.20;99.90;;;;;;5050095;28;20626;-69
2022/04/08 05:22:17;;;;;;;3.53;0.80;;;8.20;99.90;;;;;;5046085;28;20091;-69
2022/04/08 05:24:44;;;;;;;3.80;1.67;;;8.20;99.90;;;;;;5048448;28;20100;-69
2022/04/08 05:27:09;;;;;;;5.25;1.10;;;8.20;99.90;;;;;;5041873;28;20096;-69
2022/04/08 05:29:35;;;;;;;3.75;1.10;;;8.20;99.90;;;;;;5047903;28;20022;-68
2022/04/08 05:32:07;;;;;;;4.53;0.95;;;8.10;99.90;;;;;;5047632;28;20035;-69
2022/04/08 05:34:32;;;;;;;5.72;1.58;;;8.10;99.90;;;;;;5048609;28;20086;-69
2022/04/08 05:36:58;;;;;;;4.10;0.90;;;8.10;99.90;;;;;;5049231;28;20465;-69
2022/04/08 05:39:24;;;;;;;4.88;0.80;;;8.00;99.90;;;;;;5047372;28;20032;-68
2022/04/08 05:41:52;;;;;;;4.80;1.02;;;8.10;99.90;;;;;;5048112;28;20104;-67
2022/04/08 05:44:21;;;;;;;1.90;0.63;;;8.10;99.90;;;;;;5044499;28;20098;-68
2022/04/08 05:46:47;;;;;;;6.00;1.05;;;8.10;99.90;;;;;;5047016;28;20045;-68
2022/04/08 05:49:12;;;;;;;7.22;0.90;;;8.10;99.90;;;;;;5050325;28;20032;-68
2022/04/08 05:51:38;;;;;;;5.32;1.27;;;8.10;99.90;;;;;;5044167;28;20497;-68
2022/04/08 05:54:04;;;;;;;2.95;0.80;;;8.10;99.90;;;;;;5046499;28;20029;-69
2022/04/08 05:56:29;;;;;;;3.45;0.63;;;8.10;99.90;;;;;;5047543;28;20116;-68
2022/04/08 05:58:57;;;;;;;3.58;0.73;;;8.10;99.90;;;;;;5049130;28;20033;-68
2022/04/08 06:01:23;;;;;;;3.38;0.90;;;8.10;99.90;;;;;;5044968;28;20029;-67
2022/04/08 06:03:48;;;;;;;3.20;0.98;;;8.10;99.90;;;;;;5043794;28;20485;-69
2022/04/08 06:06:14;;;;;;;7.03;1.00;;;8.10;99.90;;;;;;5046296;28;20473;-68
2022/04/08 06:08:40;;;;;;;7.82;2.17;;;8.10;99.90;;;;;;5045637;28;20047;-66
2022/04/08 06:11:05;;;;;;;3.97;0.98;;;8.10;99.90;;;;;;5043514;28;20170;-68
2022/04/08 06:13:31;;;;;;;6.30;0.93;;;8.10;99.90;;;;;;5051024;28;20489;-67
2022/04/08 06:15:57;;;;;;;3.72;0.90;;;8.20;99.90;;;;;;5041628;28;20032;-68
2022/04/08 06:18:22;;;;;;;3.55;1.00;;;8.20;99.90;;;;;;5045916;28;20025;-66
2022/04/08 06:20:48;;;;;;;6.78;1.10;;;8.20;99.90;;;;;;5043547;28;20031;-70
2022/04/08 06:23:14;;;;;;;8.88;1.23;;;8.20;99.90;;;;;;5047789;28;20115;-67
2022/04/08 06:25:39;;;;;;;2.35;0.93;;;8.20;99.90;;;;;;5043840;28;20036;-66
2022/04/08 06:28:08;;;;;;;5.13;0.70;;;8.10;99.90;;;;;;5043879;28;20542;-66
2022/04/08 06:30:36;;;;;;;2.78;0.88;;;8.00;99.90;;;;;;5041899;28;20458;-66
2022/04/08 06:33:03;;;;;;;6.03;1.13;;;7.90;99.90;;;;;;5044837;28;20033;-66
2022/04/08 06:35:28;;;;;;;8.02;1.40;;;7.90;99.90;;;;;;5046476;28;20079;-66
2022/04/08 06:37:59;;;;;;;1.85;0.80;;;7.80;99.90;;;;;;5045943;28;20021;-67
2022/04/08 06:40:25;;;;;;;3.55;1.10;;;7.70;99.90;;;;;;5043197;28;20500;-66
2022/04/08 06:42:55;;;;;;;8.57;1.02;;;7.70;99.90;;;;;;5043985;28;20021;-65
2022/04/08 06:45:21;;;;;;;3.13;0.77;;;7.50;99.90;;;;;;5043386;28;20032;-67
2022/04/08 06:47:48;;;;;;;3.55;0.57;;;7.50;99.90;;;;;;5044126;28;20032;-68
2022/04/08 06:50:15;;;;;;;2.10;0.80;;;7.50;99.90;;;;;;5048620;28;20028;-67
2022/04/08 06:52:41;;;;;;;2.67;0.45;;;7.50;99.90;;;;;;5045851;28;20389;-67
2022/04/08 06:55:08;;;;;;;3.35;0.43;;;7.50;99.90;;;;;;5046201;28;20036;-68
2022/04/08 06:57:33;;;;;;;1.65;0.75;;;7.50;99.90;;;;;;5050250;28;20048;-68
2022/04/08 06:59:59;;;;;;;2.83;0.90;;;7.50;99.90;;;;;;5046526;28;20040;-67
2022/04/08 07:02:25;;;;;;;2.65;0.75;;;7.60;99.90;;;;;;5045318;28;20056;-66
2022/04/08 07:04:51;;;;;;;4.43;0.95;;;7.60;99.90;;;;;;5047566;28;20448;-67
2022/04/08 07:07:17;;;;;;;6.75;1.20;;;7.70;99.90;;;;;;5048747;28;20028;-67
2022/04/08 07:09:42;;;;;;;3.67;1.13;;;7.70;99.90;;;;;;5044717;28;20432;-67
2022/04/08 07:12:08;;;;;;;3.72;1.00;;;7.70;99.90;;;;;;5044330;28;20078;-68
2022/04/08 07:14:34;;;;;;;1.92;0.80;;;7.80;99.90;;;;;;5046090;28;20238;-70
2022/04/08 07:16:59;;;;;;;2.42;0.60;;;7.90;99.90;;;;;;5049404;28;20029;-68
2022/04/08 07:19:25;;;;;;;3.80;0.88;;;7.90;99.90;;;;;;5047980;28;20025;-69
2022/04/08 07:21:50;;;;;;;5.05;0.75;;;8.00;99.90;;;;;;5042759;28;20021;-70
2022/04/08 07:24:16;;;;;;;1.88;0.60;;;8.10;99.90;;;;;;5049143;28;20032;-68
2022/04/08 07:26:42;;;;;;;4.95;1.00;;;8.10;99.90;;;;;;5046867;28;20037;-68
2022/04/08 07:29:08;;;;;;;3.13;0.60;;;8.10;99.90;;;;;;5046150;28;20037;-67
2022/04/08 07:31:34;;;;;;;5.50;0.80;;;8.20;99.90;;;;;;5049402;28;20056;-68
2022/04/08 07:34:00;;;;;;;2.40;0.88;;;8.30;99.90;;;;;;5047506;28;20055;-70
2022/04/08 07:36:26;;;;;;;2.85;0.68;;;8.30;99.90;;;;;;5043876;28;20477;-71
2022/04/08 07:38:52;;;;;;;2.22;0.80;;;8.30;99.90;;;;;;5047364;28;20026;-68
2022/04/08 07:41:18;;;;;;;2.42;0.70;;;8.40;99.90;;;;;;5045925;28;20027;-68
2022/04/08 07:43:43;;;;;;;5.80;0.63;;;8.40;99.90;;;;;;5040760;28;20025;-70
2022/04/08 07:46:09;;;;;;;3.97;0.70;;;8.50;99.90;;;;;;5037697;28;20427;-71
2022/04/08 07:48:35;;;;;;;1.92;0.70;;;8.50;99.90;;;;;;5045559;28;20037;-70
2022/04/08 07:51:01;;;;;;;7.22;0.70;;;8.60;99.90;;;;;;5045435;28;20116;-71
2022/04/08 07:53:26;;;;;;;3.03;0.70;;;8.60;99.90;;;;;;5048867;28;20043;-70
2022/04/08 07:55:52;;;;;;;4.50;0.88;;;8.60;99.90;;;;;;5047714;28;20032;-70
2022/04/08 07:58:18;;;;;;;2.88;1.05;;;8.60;99.90;;;;;;5045863;28;20543;-71
2022/04/08 08:00:43;;;;;;;2.53;1.10;;;8.60;99.90;;;;;;5048915;28;20024;-71
2022/04/08 08:03:09;;;;;;;4.15;1.00;;;8.70;99.90;;;;;;5047970;28;20025;-69
2022/04/08 08:05:35;;;;;;;1.98;0.50;;;8.80;99.90;;;;;;5046594;28;20032;-69
2022/04/08 08:08:02;;;;;;;4.18;2.00;;;8.80;99.90;;;;;;5046080;28;20021;-70
2022/04/08 08:10:30;;;;;;;5.95;5.35;;;8.90;99.90;;;;;;5046535;28;20067;-71
2022/04/08 08:12:57;;;;;;;1.70;1.35;;;9.00;99.90;;;;;;5029653;28;20707;-70
2022/04/08 08:15:24;;;;;;;2.05;0.80;;;9.00;99.90;;;;;;5026213;28;20029;-71
2022/04/08 08:17:51;;;;;;;3.35;2.47;;;8.90;99.90;;;;;;5026011;28;20437;-71
2022/04/08 08:20:18;;;;;;;3.15;0.80;;;9.00;99.90;;;;;;5031528;28;20132;-71
2022/04/08 08:22:44;;;;;;;2.35;0.50;;;8.90;99.90;;;;;;5040187;28;20021;-70
2022/04/08 08:25:11;;;;;;;0.70;0.50;;;8.80;99.90;;;;;;5023902;28;20352;-71
2022/04/08 08:27:42;;;;;;;2.97;0.73;;;8.80;99.90;;;;;;5024452;28;20125;-71
2022/04/08 08:30:13;;;;;;;1.80;0.82;;;8.80;99.90;;;;;;5023356;28;20087;-70
2022/04/08 08:32:42;;;;;;;3.33;1.30;;;8.90;99.90;;;;;;5024063;28;20119;-69
2022/04/08 08:35:10;;;;;;;2.10;0.50;;;9.00;99.90;;;;;;5025687;28;20032;-70
2022/04/08 08:37:35;;;;;;;1.35;0.50;;;9.10;99.90;;;;;;5023745;28;20030;-70
2022/04/08 08:40:03;;;;;;;1.45;0.40;;;9.30;99.90;;;;;;5023902;28;20036;-71
2022/04/08 08:42:30;;;;;;;2.03;0.77;;;9.40;99.90;;;;;;5023603;28;20108;-71
2022/04/08 08:44:56;;;;;;;2.08;0.50;;;9.40;99.90;;;;;;5056172;28;20810;-71
2022/04/08 08:47:22;;;;;;;1.00;0.47;;;9.40;99.90;;;;;;5026229;28;20029;-71
2022/04/08 08:49:50;;;;;;;1.15;0.40;;;9.50;99.90;;;;;;5027234;28;20025;-71
2022/04/08 08:52:21;;;;;;;1.83;0.55;;;9.50;99.90;;;;;;5029330;28;20459;-71
2022/04/08 08:54:47;;;;;;;1.80;0.60;;;9.60;99.90;;;;;;5028960;28;20141;-70
2022/04/08 08:57:20;;;;;;;1.25;0.50;;;9.70;99.90;;;;;;5057592;28;20036;-71
2022/04/08 08:59:46;;;;;;;1.77;0.60;;;9.80;99.90;;;;;;5029096;28;20026;-71
2022/04/08 09:02:17;;;;;;;0.90;0.50;;;9.90;99.90;;;;;;5027649;28;20064;-71
2022/04/08 09:04:43;;;;;;;11.40;4.03;;;9.90;99.90;;;;;;5028492;28;20389;-70
2022/04/08 09:07:29;;;;;;;235.85;92.45;;;9.90;99.90;;;;;;5028209;28;20017;-70
2022/04/08 09:09:57;;;;;;;46.45;19.33;;;10.00;99.90;;;;;;5031794;28;20041;-70
2022/04/08 09:12:25;;;;;;;90.90;37.17;;;9.90;99.90;;;;;;5020647;28;20036;-70
2022/04/08 09:14:53;;;;;;;64.95;28.92;;;9.90;99.90;;;;;;5024493;28;20120;-70
2022/04/08 09:17:20;;;;;;;247.70;104.38;;;9.90;99.90;;;;;;5027450;28;20021;-69
2022/04/08 09:19:57;;;;;;;62.00;25.15;;;10.00;99.90;;;;;;5028075;28;20540;-70
2022/04/08 09:22:33;;;;;;;100.65;41.13;;;10.00;99.90;;;;;;5028311;28;20437;-71
2022/04/08 09:25:10;;;;;;;140.32;51.17;;;10.10;99.90;;;;;;5028220;28;20033;-70
2022/04/08 09:27:40;;;;;;;592.58;411.40;;;10.10;99.90;;;;;;5026365;28;20108;-70
2022/04/08 09:30:08;;;;;;;67.07;41.50;;;10.20;99.90;;;;;;5058599;28;20482;-70
2022/04/08 09:32:35;;;;;;;9.73;8.13;;;10.30;99.90;;;;;;5026674;28;20032;-71
2022/04/08 09:35:01;;;;;;;3.92;3.15;;;10.30;99.90;;;;;;5029905;28;20482;-71
2022/04/08 09:37:28;;;;;;;1.60;0.70;;;10.30;99.90;;;;;;5028241;28;20092;-71
2022/04/08 09:39:59;;;;;;;2.25;0.60;;;10.20;99.90;;;;;;5027203;28;20481;-70
2022/04/08 09:42:42;;;;;;;2.35;0.57;;;10.10;99.90;;;;;;5025096;28;20533;-69
2022/04/08 09:45:09;;;;;;;0.90;0.40;;;9.90;99.90;;;;;;5027658;28;20026;-71
2022/04/08 09:47:35;;;;;;;1.67;0.60;;;9.90;99.90;;;;;;5025619;28;20128;-70
2022/04/08 09:50:01;;;;;;;2.63;0.60;;;9.80;99.90;;;;;;5027040;28;20474;-71
2022/04/08 09:52:27;;;;;;;1.83;0.77;;;9.80;99.90;;;;;;5027036;28;20039;-71
2022/04/08 09:54:54;;;;;;;2.83;0.82;;;10.00;99.90;;;;;;5027030;28;20021;-70
2022/04/08 09:57:19;;;;;;;1.88;0.52;;;10.10;99.90;;;;;;5025886;28;20036;-71
2022/04/08 09:59:47;;;;;;;0.95;0.60;;;10.20;99.90;;;;;;5029403;28;20030;-71
2022/04/08 10:02:18;;;;;;;2.70;0.63;;;10.10;99.90;;;;;;5027081;28;20025;-70
2022/04/08 10:04:45;;;;;;;3.33;0.88;;;10.00;99.90;;;;;;5021106;28;20048;-70
2022/04/08 10:07:11;;;;;;;1.25;0.60;;;10.00;99.90;;;;;;5021770;28;20033;-71
2022/04/08 10:09:50;;;;;;;3.75;0.77;;;9.80;99.90;;;;;;5022553;28;20534;-71
2022/04/08 10:12:38;;;;;;;2.55;0.60;;;9.70;99.90;;;;;;5024990;28;20031;-69
2022/04/08 10:15:09;;;;;;;3.72;1.30;;;9.50;99.90;;;;;;5024309;28;20115;-70
2022/04/08 10:17:34;;;;;;;3.35;1.00;;;9.30;99.90;;;;;;5025311;28;20386;-70
2022/04/08 10:20:18;;;;;;;3.15;1.10;;;9.20;99.90;;;;;;5022638;28;20025;-70
2022/04/08 10:22:43;;;;;;;3.35;1.00;;;9.00;99.90;;;;;;5020993;28;20129;-70
2022/04/08 10:25:17;;;;;;;2.45;1.00;;;9.00;99.90;;;;;;5024551;28;20124;-70
2022/04/08 10:27:44;;;;;;;2.25;1.48;;;8.90;99.90;;;;;;5027707;28;20061;-70
2022/04/08 10:30:21;;;;;;;5.90;1.45;;;8.80;99.90;;;;;;5027527;28;20120;-71
2022/04/08 10:32:57;;;;;;;2.75;1.13;;;8.80;99.90;;;;;;5022923;28;20391;-70
2022/04/08 10:35:23;;;;;;;1.95;0.77;;;8.80;99.90;;;;;;5024810;28;20398;-70
2022/04/08 10:38:00;;;;;;;3.10;1.55;;;8.60;99.90;;;;;;5025245;28;20026;-71
2022/04/08 10:40:53;;;;;;;4.22;1.10;;;8.50;99.90;;;;;;5024030;28;20493;-71
2022/04/08 10:43:19;;;;;;;1.80;0.80;;;8.20;99.90;;;;;;5025985;28;20715;-70
2022/04/08 10:45:58;;;;;;;1.83;0.95;;;8.00;99.90;;;;;;5026067;28;20108;-70
2022/04/08 10:48:34;;;;;;;3.97;1.08;;;7.90;99.90;;;;;;5023884;28;20474;-71
2022/04/08 10:51:17;;;;;;;6.30;1.23;;;7.80;99.90;;;;;;5020328;28;20036;-70
2022/04/08 10:53:44;;;;;;;4.88;1.50;;;7.70;99.90;;;;;;5019502;28;20038;-69
2022/04/08 10:56:14;;;;;;;3.75;1.70;;;7.50;99.90;;;;;;5024767;28;20068;-70
2022/04/08 10:58:43;;;;;;;8.98;2.90;;;7.40;99.90;;;;;;5023397;28;20466;-70
2022/04/08 11:01:23;;;;;;;4.28;2.08;;;7.20;99.90;;;;;;5022795;28;20026;-71
2022/04/08 11:04:03;;;;;;;6.68;2.30;;;7.20;99.90;;;;;;5018717;28;20052;-70
2022/04/08 11:06:31;;;;;;;4.05;1.60;;;7.20;99.90;;;;;;5019576;28;20056;-69
2022/04/08 11:09:04;;;;;;;4.88;1.90;;;7.20;99.90;;;;;;5028347;28;20084;-70
2022/04/08 11:11:31;;;;;;;6.47;3.57;;;7.10;99.90;;;;;;5024376;28;20422;-70
2022/04/08 11:13:58;;;;;;;3.40;2.22;;;7.20;99.90;;;;;;5024216;28;20278;-70
2022/04/08 11:16:27;;;;;;;3.55;2.25;;;7.10;99.90;;;;;;5017993;28;20036;-70
2022/04/08 11:18:54;;;;;;;4.47;1.75;;;7.10;99.90;;;;;;5019116;28;20083;-70
2022/04/08 11:21:21;;;;;;;4.53;2.90;;;7.10;99.90;;;;;;5022949;28;20083;-71
2022/04/08 11:24:06;;;;;;;5.28;2.60;;;7.10;99.90;;;;;;5023820;28;20017;-70
2022/04/08 11:26:59;;;;;;;5.60;2.28;;;7.00;99.90;;;;;;5024732;28;20472;-70
2022/04/08 11:29:27;;;;;;;3.60;2.30;;;7.20;99.90;;;;;;5045222;28;20498;-70
2022/04/08 11:32:06;;;;;;;4.53;2.28;;;7.20;99.90;;;;;;5024646;28;20041;-70
2022/04/08 11:34:31;;;;;;;4.38;2.65;;;7.30;99.90;;;;;;5020745;28;20021;-69
2022/04/08 11:36:57;;;;;;;6.97;3.33;;;7.30;99.90;;;;;;5022976;28;20034;-70
2022/04/08 11:39:23;;;;;;;6.75;3.03;;;7.20;99.90;;;;;;5024055;28;20459;-70
2022/04/08 11:41:54;;;;;;;7.05;4.05;;;7.20;99.90;;;;;;5016988;28;20485;-70
2022/04/08 11:44:21;;;;;;;6.80;3.17;;;7.30;99.90;;;;;;5021670;28;20022;-70
2022/04/08 11:46:46;;;;;;;7.22;3.28;;;7.20;99.90;;;;;;5027682;28;20045;-71
2022/04/08 11:49:13;;;;;;;7.30;3.80;;;7.30;99.90;;;;;;5024611;28;20025;-71
2022/04/08 11:51:39;;;;;;;8.15;3.53;;;7.40;99.90;;;;;;5020927;28;20033;-70
2022/04/08 11:54:04;;;;;;;5.82;3.55;;;7.40;99.90;;;;;;5025101;28;20039;-70
2022/04/08 11:56:31;;;;;;;7.65;3.05;;;7.50;99.90;;;;;;5027441;28;20025;-71
2022/04/08 11:59:05;;;;;;;5.10;2.88;;;7.50;99.90;;;;;;5022965;28;20060;-70
2022/04/08 12:01:39;;;;;;;4.78;2.50;;;7.50;99.90;;;;;;5020719;28;20156;-70
2022/04/08 12:04:08;;;;;;;3.70;2.13;;;7.50;99.90;;;;;;5019823;28;20029;-69
2022/04/08 12:06:41;;;;;;;4.30;2.65;;;7.50;99.90;;;;;;5025180;28;20402;-70
2022/04/08 12:09:12;;;;;;;3.42;2.05;;;7.40;99.90;;;;;;5020943;28;20080;-70
2022/04/08 12:11:39;;;;;;;5.72;3.03;;;7.40;99.90;;;;;;5025571;28;20117;-70
2022/04/08 12:14:08;;;;;;;11.25;4.32;;;7.40;99.90;;;;;;5020923;28;20478;-69
2022/04/08 12:16:34;;;;;;;10.63;5.07;;;7.40;99.90;;;;;;5016013;28;20116;-70
2022/04/08 12:19:04;;;;;;;8.55;4.30;;;7.40;99.90;;;;;;5023944;28;20187;-69
2022/04/08 12:21:31;;;;;;;4.05;2.67;;;7.40;99.90;;;;;;5023479;28;20033;-69
2022/04/08 12:24:02;;;;;;;3.60;2.42;;;7.40;99.90;;;;;;5022338;28;20928;-70
2022/04/08 12:26:33;;;;;;;6.90;3.22;;;7.40;99.90;;;;;;5024063;28;20025;-70
2022/04/08 12:29:15;;;;;;;5.38;3.17;;;7.50;99.90;;;;;;5026781;28;20029;-70
2022/04/08 12:31:50;;;;;;;5.15;3.03;;;7.70;99.90;;;;;;5019442;28;20037;-71
2022/04/08 12:34:16;;;;;;;6.28;3.72;;;7.70;99.90;;;;;;5024283;28;20064;-70
2022/04/08 12:36:45;;;;;;;7.38;3.97;;;7.60;99.90;;;;;;5019830;28;20026;-70
2022/04/08 12:39:11;;;;;;;5.00;3.40;;;7.60;99.90;;;;;;5022017;28;20021;-70
2022/04/08 12:41:42;;;;;;;6.85;3.50;;;7.60;99.90;;;;;;5021430;28;20390;-71
2022/04/08 12:44:08;;;;;;;9.82;3.38;;;7.70;99.90;;;;;;5023268;28;20028;-70
2022/04/08 12:46:34;;;;;;;3.47;2.55;;;7.40;99.90;;;;;;5019399;28;20127;-69
2022/04/08 12:49:00;;;;;;;6.50;2.45;;;7.30;99.90;;;;;;5022824;28;20061;-69
2022/04/08 12:51:28;;;;;;;4.53;2.83;;;7.10;99.90;;;;;;5023558;28;20053;-70
2022/04/08 12:53:54;;;;;;;5.95;2.63;;;7.10;99.90;;;;;;5023510;28;20081;-70
2022/04/08 12:56:19;;;;;;;5.50;2.75;;;6.90;99.90;;;;;;5020526;28;20502;-70
2022/04/08 12:58:46;;;;;;;6.55;2.78;;;6.90;99.90;;;;;;5020925;28;20029;-70